METAR Data
IDs: Format: Raw Decoded Include TAF

Data at: 0239 UTC 24 Sep 2018

KBYI 240153Z AUTO 22009KT 10SM CLR 16/03 A2996 RMK AO2 SLP117 T01610033
KBYI 240053Z AUTO 23008KT 10SM CLR 17/04 A2995 RMK AO2 SLP114 T01720039
KBYI 232353Z AUTO 28008KT 10SM CLR 18/05 A2995 RMK AO2 SLP116 T01830050 10222 20172 55004
KBYI 232253Z AUTO 29008G15KT 10SM CLR 20/05 A2994 RMK AO2 SLP113 T02000050
KBYI 232153Z AUTO 26005KT 10SM CLR 21/04 A2995 RMK AO2 SLP109 T02110044
KBYI 232053Z AUTO 29008KT 10SM CLR 20/06 A2997 RMK AO2 SLP117 T02000056 58012
KBYI 231953Z AUTO 29008KT 10SM CLR 21/05 A2998 RMK AO2 SLP118 T02060050
KBYI 231853Z AUTO 26007KT 10SM CLR 18/06 A3000 RMK AO2 SLP131 T01830056
KBYI 231753Z AUTO 28008KT 10SM CLR 18/03 A3001 RMK AO2 SLP134 T01780033 10183 20106 51004
KBYI 231653Z AUTO 24009KT 10SM CLR 16/03 A3000 RMK AO2 SLP131 T01610028
KBYI 231553Z AUTO 25009KT 10SM CLR 15/02 A3000 RMK AO2 SLP132 T01500022
KBYI 231453Z AUTO 27011KT 10SM CLR 15/01 A2999 RMK AO2 SLP127 T01500011 53010
KBYI 231353Z AUTO 25008KT 10SM CLR 14/02 A2997 RMK AO2 SLP119 T01390017
KBYI 231253Z AUTO 28006KT 10SM CLR 13/01 A2996 RMK AO2 SLP112 T01280006
KBYI 231153Z AUTO 00000KT 10SM CLR 11/01 A2996 RMK AO2 SLP106 T01060011 10150 20089 53008
KBYI 231053Z AUTO 21004KT 10SM CLR 09/02 A2994 RMK AO2 SLP103 T00890017
KBYI 230953Z AUTO 29005KT 10SM CLR 13/00 A2993 RMK AO2 SLP091 T01330000
KBYI 230853Z AUTO 00000KT 10SM CLR 12/M01 A2993 RMK AO2 SLP093 T01171006 51001
KBYI 230753Z AUTO 27005KT 10SM CLR 14/M01 A2993 RMK AO2 SLP091 T01441006
KBYI 230653Z AUTO 21006KT 10SM CLR 11/02 A2993 RMK AO2 SLP096 T01110022 402940056
KBYI 230553Z AUTO 19003KT 10SM CLR 12/03 A2992 RMK AO2 SLP096 60000 T01220028 10278 20117 55000
KBYI 230453Z AUTO 22003KT 10SM CLR 14/01 A2993 RMK AO2 SLP094 T01390011
KBYI 230353Z AUTO 19003KT 10SM CLR 15/02 A2992 RMK AO2 SLP101 T01500022
KBYI 230253Z AUTO 16003KT 10SM CLR 16/04 A2993 RMK AO2 RAE0158 SLP108 P0000 60000 T01610039 55000
KBYI 230153Z AUTO 00000KT 10SM -RA CLR 18/03 A2992 RMK AO2 RAB49 SLP109 P0000 T01830028
KBYI 230053Z AUTO 36003KT 10SM CLR 23/M01 A2992 RMK AO2 SLP104 T02281011
KBYI 222353Z AUTO 33009KT 10SM CLR 28/M05 A2993 RMK AO2 SLP099 T02781050 10294 20250 56016
KBYI 222253Z AUTO 29007KT 10SM CLR 29/M05 A2993 RMK AO2 SLP101 T02891050
KBYI 222153Z AUTO 30006KT 10SM CLR 29/M05 A2995 RMK AO2 SLP104 T02891050
KBYI 222053Z AUTO 31007KT 10SM CLR 29/M04 A2998 RMK AO2 SLP115 T02891044 58021
KBYI 221953Z AUTO 27009KT 10SM CLR 28/M04 A3001 RMK AO2 SLP128 T02781039
KBYI 221853Z AUTO VRB05KT 10SM CLR 27/M04 A3003 RMK AO2 SLP135 T02721039
KBYI 221753Z AUTO 28004KT 10SM CLR 25/M01 A3005 RMK AO2 SLP142 T02501011 10256 20056 58004
KBYI 221653Z AUTO 00000KT 10SM CLR 24/01 A3006 RMK AO2 SLP145 T02440011
KBYI 221553Z AUTO 20010KT 10SM CLR 18/02 A3006 RMK AO2 SLP151 T01780017
KBYI 221453Z AUTO 09003KT 10SM CLR 11/02 A3007 RMK AO2 SLP161 T01110022 53006